createdAt,value
2018-07-04T00:00:17.402Z,100.00
2018-07-04T00:01:40.881Z,100.00
2018-07-04T00:03:08.472Z,100.00
2018-07-04T00:04:39.748Z,100.00
2018-07-04T00:06:07.427Z,100.00
2018-07-04T00:07:30.320Z,100.00
2018-07-04T00:08:57.696Z,100.00
2018-07-04T00:10:25.254Z,100.00
2018-07-04T00:11:52.481Z,100.00
2018-07-04T00:13:19.977Z,100.00
2018-07-04T00:14:47.351Z,100.00
2018-07-04T00:16:18.821Z,100.00
2018-07-04T00:17:42.029Z,100.00
2018-07-04T00:19:09.260Z,100.00
2018-07-04T00:20:36.638Z,100.00
2018-07-04T00:22:07.837Z,100.00
2018-07-04T00:23:35.281Z,100.00
2018-07-04T00:25:02.463Z,100.00
2018-07-04T00:26:29.976Z,100.00
2018-07-04T00:27:57.123Z,100.00
2018-07-04T00:29:20.373Z,100.00
2018-07-04T00:30:51.728Z,100.00
2018-07-04T00:32:15.260Z,100.00
2018-07-04T00:33:42.650Z,100.00
2018-07-04T00:35:13.887Z,100.00
2018-07-04T00:36:37.251Z,100.00
2018-07-04T00:38:04.568Z,100.00
2018-07-04T00:39:31.897Z,100.00
2018-07-04T00:40:59.295Z,100.00
2018-07-04T00:42:26.661Z,100.00
2018-07-04T00:43:53.875Z,100.00
2018-07-04T00:45:21.061Z,100.00
2018-07-04T00:46:52.688Z,100.00
2018-07-04T00:48:16.115Z,100.00
2018-07-04T00:49:43.472Z,100.00
2018-07-04T00:51:14.794Z,100.00
2018-07-04T00:52:37.901Z,100.00
2018-07-04T00:54:09.346Z,100.00
2018-07-04T00:55:36.543Z,100.00
2018-07-04T00:57:00.088Z,100.00
2018-07-04T00:58:27.500Z,100.00
2018-07-04T00:59:59.067Z,100.00
2018-07-04T01:01:26.216Z,100.00
2018-07-04T01:02:49.701Z,100.00
2018-07-04T01:04:21.284Z,100.00
2018-07-04T01:05:48.643Z,100.00
2018-07-04T01:07:16.915Z,100.00
2018-07-04T01:08:43.449Z,100.00
2018-07-04T01:10:06.716Z,100.00
2018-07-04T01:11:34.018Z,100.00
2018-07-04T01:13:01.565Z,100.00
2018-07-04T01:14:28.896Z,100.00
2018-07-04T01:15:56.026Z,100.00
2018-07-04T01:17:23.253Z,100.00
2018-07-04T01:18:54.822Z,100.00
2018-07-04T01:20:22.013Z,100.00
2018-07-04T01:21:45.511Z,100.00
2018-07-04T01:23:12.853Z,100.00
2018-07-04T01:24:44.324Z,100.00
2018-07-04T01:26:11.495Z,100.00
2018-07-04T01:27:38.659Z,100.00
2018-07-04T01:29:02.290Z,100.00
2018-07-04T01:30:29.530Z,100.00
2018-07-04T01:32:00.858Z,100.00
2018-07-04T01:33:24.308Z,100.00
2018-07-04T01:34:51.866Z,100.00
2018-07-04T01:36:19.005Z,100.00
2018-07-04T01:37:46.233Z,100.00
2018-07-04T01:39:17.628Z,100.00
2018-07-04T01:40:40.964Z,100.00
2018-07-04T01:42:08.345Z,100.00
2018-07-04T01:43:35.710Z,100.00
2018-07-04T01:45:03.074Z,100.00
2018-07-04T01:46:30.436Z,100.00
2018-07-04T01:47:57.945Z,100.00
2018-07-04T01:49:25.242Z,100.00
2018-07-04T01:50:56.762Z,100.00
2018-07-04T01:52:20.020Z,100.00
2018-07-04T01:53:47.427Z,100.00
2018-07-04T01:55:14.793Z,100.00
2018-07-04T01:56:46.008Z,100.00
2018-07-04T01:58:09.089Z,100.00
2018-07-04T01:59:36.456Z,100.00
2018-07-04T02:01:03.592Z,100.00
2018-07-04T02:02:34.798Z,100.00
2018-07-04T02:03:58.102Z,100.00
2018-07-04T02:05:25.492Z,100.00
2018-07-04T02:06:53.088Z,100.00
2018-07-04T02:08:24.533Z,100.00
2018-07-04T02:09:47.980Z,100.00
2018-07-04T02:11:19.260Z,100.00
2018-07-04T02:12:42.499Z,100.00
2018-07-04T02:14:09.610Z,100.00
2018-07-04T02:15:36.924Z,100.00
2018-07-04T02:17:08.441Z,100.00
2018-07-04T02:18:35.783Z,100.00
2018-07-04T02:19:59.198Z,100.00
2018-07-04T02:21:30.480Z,100.00
2018-07-04T02:22:57.802Z,100.00
2018-07-04T02:24:21.250Z,100.00
2018-07-04T02:25:52.853Z,100.00
2018-07-04T02:27:20.075Z,100.00
2018-07-04T02:28:47.198Z,100.00
2018-07-04T02:30:10.585Z,100.00
2018-07-04T02:31:37.960Z,100.00
2018-07-04T02:33:05.207Z,100.00
2018-07-04T02:34:36.357Z,100.00
2018-07-04T02:36:03.777Z,100.00
2018-07-04T02:37:31.299Z,100.00
2018-07-04T02:38:54.592Z,100.00
2018-07-04T02:40:21.899Z,100.00
2018-07-04T02:41:53.014Z,100.00
2018-07-04T02:43:16.578Z,100.00
2018-07-04T02:44:43.713Z,100.00
2018-07-04T02:46:10.969Z,100.00
2018-07-04T02:47:42.476Z,100.00
2018-07-04T02:49:09.708Z,100.00
2018-07-04T02:50:32.874Z,100.00
2018-07-04T02:52:00.122Z,100.00
2018-07-04T02:53:31.371Z,100.00
2018-07-04T02:54:54.506Z,100.00
2018-07-04T02:56:22.019Z,100.00
2018-07-04T02:57:49.276Z,100.00
2018-07-04T02:59:13.638Z,100.00
2018-07-04T03:00:48.056Z,100.00
2018-07-04T03:02:15.359Z,100.00
2018-07-04T03:03:42.813Z,100.00
2018-07-04T03:05:05.950Z,100.00
2018-07-04T03:06:37.401Z,100.00
2018-07-04T03:08:04.619Z,100.00
2018-07-04T03:09:28.069Z,100.00
2018-07-04T03:10:59.666Z,100.00
2018-07-04T03:12:23.110Z,100.00
2018-07-04T03:13:54.307Z,100.00
2018-07-04T03:15:21.870Z,100.00
2018-07-04T03:16:45.046Z,100.00
2018-07-04T03:18:12.418Z,100.00
2018-07-04T03:19:39.730Z,100.00
2018-07-04T03:21:07.159Z,100.00
2018-07-04T03:22:34.631Z,100.00
2018-07-04T03:24:05.772Z,100.00
2018-07-04T03:25:33.238Z,100.00
2018-07-04T03:27:00.646Z,100.00
2018-07-04T03:28:24.053Z,100.00
2018-07-04T03:29:51.713Z,100.00
2018-07-04T03:31:18.958Z,100.00
2018-07-04T03:32:46.417Z,100.00
2018-07-04T03:34:13.921Z,100.00
2018-07-04T03:35:41.447Z,100.00
2018-07-04T03:37:12.725Z,100.00
2018-07-04T03:38:36.105Z,100.00
2018-07-04T03:40:07.205Z,100.00
2018-07-04T03:41:30.737Z,100.00
2018-07-04T03:43:02.276Z,100.00
2018-07-04T03:44:25.615Z,100.00
2018-07-04T03:45:56.992Z,100.00
2018-07-04T03:47:28.544Z,100.00
2018-07-04T03:48:47.547Z,100.00
2018-07-04T03:50:14.972Z,100.00
2018-07-04T03:51:46.383Z,100.00
2018-07-04T03:53:09.803Z,100.00
2018-07-04T03:54:41.131Z,100.00
2018-07-04T03:56:04.674Z,100.00
2018-07-04T03:57:32.081Z,100.00
2018-07-04T03:59:03.453Z,100.00
2018-07-04T04:00:26.841Z,100.00
2018-07-04T04:01:54.317Z,100.00
2018-07-04T04:03:25.883Z,100.00
2018-07-04T04:04:53.295Z,100.00
2018-07-04T04:06:16.805Z,100.00
2018-07-04T04:07:44.023Z,100.00
2018-07-04T04:09:11.444Z,100.00
2018-07-04T04:10:39.050Z,100.00
2018-07-04T04:12:10.636Z,100.00
2018-07-04T04:13:38.035Z,100.00
2018-07-04T04:15:01.200Z,100.00
2018-07-04T04:16:28.628Z,100.00
2018-07-04T04:17:55.906Z,100.00
2018-07-04T04:19:27.468Z,100.00
2018-07-04T04:20:50.822Z,100.00
2018-07-04T04:22:22.366Z,100.00
2018-07-04T04:23:49.887Z,100.00
2018-07-04T04:25:17.320Z,100.00
2018-07-04T04:26:44.562Z,100.00
2018-07-04T04:28:12.146Z,100.00
2018-07-04T04:29:35.562Z,100.00
2018-07-04T04:31:07.086Z,100.00
2018-07-04T04:32:34.560Z,100.00
2018-07-04T04:33:58.634Z,100.00
2018-07-04T04:35:26.261Z,100.00
2018-07-04T04:36:57.575Z,100.00
2018-07-04T04:38:24.911Z,100.00
2018-07-04T04:39:52.139Z,100.00
2018-07-04T04:41:19.590Z,100.00
2018-07-04T04:42:47.051Z,100.00
2018-07-04T04:44:10.369Z,100.00
2018-07-04T04:45:41.741Z,100.00
2018-07-04T04:47:05.006Z,100.00
2018-07-04T04:48:32.358Z,100.00
2018-07-04T04:49:59.884Z,100.00
2018-07-04T04:51:31.213Z,100.00
2018-07-04T04:52:54.625Z,100.00
2018-07-04T04:54:26.081Z,100.00
2018-07-04T04:55:53.273Z,100.00
2018-07-04T04:57:16.799Z,100.00
2018-07-04T04:58:48.024Z,100.00
2018-07-04T05:00:11.510Z,100.00
2018-07-04T05:01:42.861Z,100.00
2018-07-04T05:03:06.536Z,100.00
2018-07-04T05:04:37.922Z,100.00
2018-07-04T05:06:01.302Z,100.00
2018-07-04T05:07:32.739Z,100.00
2018-07-04T05:08:56.219Z,100.00
2018-07-04T05:10:27.439Z,100.00
2018-07-04T05:11:54.793Z,100.00
2018-07-04T05:13:21.957Z,100.00
2018-07-04T05:14:45.604Z,100.00
2018-07-04T05:16:12.933Z,100.00
2018-07-04T05:17:40.199Z,100.00
2018-07-04T05:19:07.737Z,100.00
2018-07-04T05:20:35.194Z,100.00
2018-07-04T05:22:02.444Z,100.00
2018-07-04T05:23:33.636Z,100.00
2018-07-04T05:24:56.968Z,100.00
2018-07-04T05:26:24.498Z,100.00
2018-07-04T05:27:55.798Z,100.00
2018-07-04T05:29:23.216Z,100.00
2018-07-04T05:30:50.662Z,100.00
2018-07-04T05:32:17.724Z,100.00
2018-07-04T05:33:44.862Z,100.00
2018-07-04T05:35:08.406Z,100.00
2018-07-04T05:36:35.760Z,100.00
2018-07-04T05:38:07.245Z,100.00
2018-07-04T05:39:30.425Z,100.00
2018-07-04T05:40:57.632Z,100.00
2018-07-04T05:42:24.790Z,100.00
2018-07-04T05:43:52.321Z,100.00
2018-07-04T05:45:19.802Z,100.00
2018-07-04T05:46:47.118Z,100.00
2018-07-04T05:48:14.926Z,100.00
2018-07-04T05:49:46.087Z,100.00
2018-07-04T05:51:09.635Z,100.00
2018-07-04T05:52:37.300Z,100.00
2018-07-04T05:54:08.591Z,100.00
2018-07-04T05:55:32.439Z,100.00
2018-07-04T05:56:59.702Z,100.00
2018-07-04T05:58:26.939Z,100.00
2018-07-04T05:59:54.509Z,100.00
2018-07-04T06:01:22.245Z,100.00
2018-07-04T06:02:49.533Z,100.00
2018-07-04T06:04:21.051Z,100.00
2018-07-04T06:05:44.760Z,100.00
2018-07-04T06:07:11.987Z,100.00
2018-07-04T06:08:43.488Z,100.00
2018-07-04T06:10:10.898Z,100.00
2018-07-04T06:11:38.361Z,100.00
2018-07-04T06:13:05.758Z,100.00
2018-07-04T06:14:33.433Z,100.00
2018-07-04T06:15:56.871Z,100.00
2018-07-04T06:17:28.530Z,100.00
2018-07-04T06:18:51.844Z,100.00
2018-07-04T06:20:19.166Z,100.00
2018-07-04T06:21:46.612Z,100.00
2018-07-04T06:23:14.037Z,100.00
2018-07-04T06:24:41.020Z,100.00
2018-07-04T06:26:12.487Z,100.00
2018-07-04T06:27:40.201Z,100.00
2018-07-04T06:29:03.323Z,100.00
2018-07-04T06:30:30.873Z,100.00
2018-07-04T06:31:58.477Z,100.00
2018-07-04T06:33:26.053Z,100.00
2018-07-04T06:34:57.627Z,100.00
2018-07-04T06:36:21.371Z,100.00
2018-07-04T06:37:52.989Z,100.00
2018-07-04T06:39:20.667Z,100.00
2018-07-04T06:40:48.154Z,100.00
2018-07-04T06:42:11.969Z,100.00
2018-07-04T06:43:43.657Z,100.00
2018-07-04T06:45:07.163Z,100.00
2018-07-04T06:46:38.995Z,100.00
2018-07-04T06:48:06.148Z,100.00
2018-07-04T06:49:29.580Z,100.00
2018-07-04T06:50:57.267Z,100.00
2018-07-04T06:52:24.713Z,100.00
2018-07-04T06:53:56.451Z,100.00
2018-07-04T06:55:23.480Z,100.00
2018-07-04T06:56:47.008Z,100.00
2018-07-04T06:58:14.370Z,100.00
2018-07-04T06:59:41.827Z,99.71
2018-07-04T07:01:09.694Z,100.00
2018-07-04T07:02:37.079Z,100.00
2018-07-04T07:04:04.118Z,100.00
2018-07-04T07:05:35.861Z,100.00
2018-07-04T07:06:59.259Z,100.00
2018-07-04T07:08:26.651Z,100.00
2018-07-04T07:09:54.117Z,100.00
2018-07-04T07:11:21.693Z,100.00
2018-07-04T07:12:53.145Z,100.00
2018-07-04T07:14:16.523Z,100.00
2018-07-04T07:15:44.268Z,100.00
2018-07-04T07:17:11.727Z,100.00
2018-07-04T07:18:38.774Z,100.00
2018-07-04T07:20:10.295Z,100.00
2018-07-04T07:21:37.951Z,100.00
2018-07-04T07:23:01.154Z,100.00
2018-07-04T07:24:28.585Z,100.00
2018-07-04T07:26:00.250Z,100.00
2018-07-04T07:27:23.517Z,100.00
2018-07-04T07:28:51.196Z,100.00
2018-07-04T07:30:18.806Z,100.00
2018-07-04T07:31:46.074Z,100.00
2018-07-04T07:33:17.531Z,100.00
2018-07-04T07:34:44.801Z,100.00
2018-07-04T07:36:12.412Z,100.00
2018-07-04T07:37:36.028Z,100.00
2018-07-04T07:39:03.578Z,100.00
2018-07-04T07:40:31.039Z,100.00
2018-07-04T07:41:58.193Z,100.00
2018-07-04T07:43:25.594Z,100.00
2018-07-04T07:44:53.098Z,100.00
2018-07-04T07:46:24.438Z,100.00
2018-07-04T07:47:47.902Z,100.00
2018-07-04T07:49:15.494Z,100.00
2018-07-04T07:50:42.450Z,100.00
2018-07-04T07:52:10.082Z,100.00
2018-07-04T07:53:37.736Z,100.00
2018-07-04T07:55:05.098Z,100.00
2018-07-04T07:56:32.579Z,100.00
2018-07-04T07:58:03.754Z,100.00
2018-07-04T07:59:27.313Z,100.00
2018-07-04T08:00:54.925Z,100.00
2018-07-04T08:02:22.184Z,100.00
2018-07-04T08:03:53.715Z,100.00
2018-07-04T08:05:17.046Z,100.00
2018-07-04T08:06:44.602Z,100.00
2018-07-04T08:08:11.984Z,100.00
2018-07-04T08:09:39.348Z,100.00
2018-07-04T08:11:10.723Z,100.00
2018-07-04T08:12:33.885Z,100.00
2018-07-04T08:14:01.473Z,100.00
2018-07-04T08:15:32.983Z,100.00
2018-07-04T08:17:00.501Z,100.00
2018-07-04T08:18:24.147Z,100.00
2018-07-04T08:19:54.998Z,100.00
2018-07-04T08:21:18.619Z,100.00
2018-07-04T08:22:46.070Z,99.04
2018-07-04T08:24:17.533Z,99.83
2018-07-04T08:25:45.154Z,98.83
2018-07-04T08:27:08.704Z,98.82
2018-07-04T08:28:40.463Z,93.26
2018-07-04T08:30:04.239Z,94.27
2018-07-04T08:31:30.978Z,98.04
2018-07-04T08:33:02.609Z,97.61
2018-07-04T08:34:30.276Z,100.00
2018-07-04T08:35:53.958Z,100.00
2018-07-04T08:37:25.673Z,98.12
2018-07-04T08:38:53.124Z,96.40
2018-07-04T08:40:16.784Z,95.97
2018-07-04T08:41:48.440Z,93.17
2018-07-04T08:43:11.935Z,97.40
2018-07-04T08:44:43.584Z,98.98
2018-07-04T08:46:10.909Z,97.17
2018-07-04T08:47:34.289Z,96.94
2018-07-04T08:49:02.094Z,96.99
2018-07-04T08:50:33.672Z,96.16
2018-07-04T08:51:57.340Z,100.00
2018-07-04T08:53:24.676Z,96.46
2018-07-04T08:54:52.497Z,91.98
2018-07-04T08:56:23.874Z,91.86
2018-07-04T08:57:47.451Z,88.55
2018-07-04T08:59:19.044Z,87.91
2018-07-04T09:00:46.584Z,86.37
2018-07-04T09:02:09.869Z,89.20
2018-07-04T09:03:37.297Z,90.30
2018-07-04T09:05:04.678Z,86.13
2018-07-04T09:06:32.199Z,88.99
2018-07-04T09:07:59.627Z,91.75
2018-07-04T09:09:27.254Z,89.98
2018-07-04T09:10:54.979Z,77.91
2018-07-04T09:12:26.525Z,74.59
2018-07-04T09:13:49.768Z,72.46
2018-07-04T09:15:21.277Z,74.06
2018-07-04T09:16:44.805Z,75.45
2018-07-04T09:18:12.255Z,75.95
2018-07-04T09:19:39.627Z,74.82
2018-07-04T09:21:07.125Z,65.92
2018-07-04T09:22:34.590Z,69.70
2018-07-04T09:24:06.081Z,69.25
2018-07-04T09:25:33.318Z,65.49
2018-07-04T09:26:56.679Z,72.33
2018-07-04T09:28:23.647Z,73.99
2018-07-04T09:29:51.161Z,74.94
2018-07-04T09:31:18.545Z,79.67
2018-07-04T09:32:46.151Z,84.35
2018-07-04T09:34:13.719Z,82.94
2018-07-04T09:35:44.912Z,81.04
2018-07-04T09:37:08.498Z,77.47
2018-07-04T09:38:36.048Z,77.68
2018-07-04T09:40:03.742Z,79.14
2018-07-04T09:41:35.383Z,74.98
2018-07-04T09:42:58.965Z,70.48
2018-07-04T09:44:30.668Z,72.40
2018-07-04T09:45:58.117Z,71.69
2018-07-04T09:47:25.779Z,72.15
2018-07-04T09:48:49.298Z,73.03
2018-07-04T09:50:16.808Z,74.83
2018-07-04T09:51:44.283Z,76.47
2018-07-04T09:53:15.779Z,75.77
2018-07-04T09:54:39.225Z,68.60
2018-07-04T09:56:10.741Z,73.50
2018-07-04T09:57:34.044Z,76.76
2018-07-04T09:59:01.780Z,72.66
2018-07-04T10:00:29.155Z,71.02
2018-07-04T10:02:00.698Z,74.11
2018-07-04T10:03:28.040Z,68.72
2018-07-04T10:04:55.316Z,72.95
2018-07-04T10:06:18.906Z,70.22
2018-07-04T10:07:50.562Z,67.39
2018-07-04T10:09:18.116Z,68.71
2018-07-04T10:10:41.673Z,64.81
2018-07-04T10:12:09.182Z,64.01
2018-07-04T10:13:36.632Z,62.66
2018-07-04T10:15:04.407Z,62.59
2018-07-04T10:16:31.462Z,60.46
2018-07-04T10:18:03.275Z,59.72
2018-07-04T10:19:26.765Z,61.53
2018-07-04T10:20:53.912Z,65.52
2018-07-04T10:22:21.481Z,60.62
2018-07-04T10:23:48.823Z,60.72
2018-07-04T10:25:16.319Z,62.50
2018-07-04T10:26:43.751Z,58.84
2018-07-04T10:28:11.214Z,58.16
2018-07-04T10:29:38.758Z,56.89
2018-07-04T10:31:06.073Z,50.89
2018-07-04T10:32:37.473Z,50.63
2018-07-04T10:34:01.112Z,48.85
2018-07-04T10:35:28.860Z,51.89
2018-07-04T10:36:56.377Z,50.90
2018-07-04T10:38:23.996Z,53.51
2018-07-04T10:39:51.396Z,60.30
2018-07-04T10:41:19.008Z,55.24
2018-07-04T10:42:46.507Z,49.35
2018-07-04T10:44:14.175Z,53.02
2018-07-04T10:45:41.784Z,51.99
2018-07-04T10:47:09.513Z,50.83
2018-07-04T10:48:37.298Z,51.47
2018-07-04T10:50:04.625Z,51.65
2018-07-04T10:51:31.912Z,52.17
2018-07-04T10:52:59.496Z,52.24
2018-07-04T10:54:27.142Z,52.28
2018-07-04T10:55:54.738Z,51.80
2018-07-04T10:57:22.230Z,48.75
2018-07-04T10:58:53.360Z,46.34
2018-07-04T11:00:16.747Z,48.92
2018-07-04T11:01:44.173Z,49.61
2018-07-04T11:03:15.792Z,48.72
2018-07-04T11:04:43.143Z,46.83
2018-07-04T11:06:06.793Z,46.64
2018-07-04T11:07:38.524Z,48.83
2018-07-04T11:09:02.202Z,48.20
2018-07-04T11:10:29.702Z,47.00
2018-07-04T11:12:01.338Z,47.31
2018-07-04T11:13:29.016Z,45.96
2018-07-04T11:14:52.736Z,44.63
2018-07-04T11:16:24.092Z,46.15
2018-07-04T11:17:47.668Z,45.91
2018-07-04T11:19:15.455Z,44.05
2018-07-04T11:20:42.603Z,44.24
2018-07-04T11:22:10.042Z,42.81
2018-07-04T11:23:37.927Z,43.36
2018-07-04T11:25:05.210Z,43.73
2018-07-04T11:26:32.765Z,43.70
2018-07-04T11:28:00.298Z,42.81
2018-07-04T11:29:31.941Z,42.76
2018-07-04T11:30:55.383Z,43.13
2018-07-04T11:32:26.934Z,40.70
2018-07-04T11:33:50.593Z,40.64
2018-07-04T11:35:18.093Z,41.02
2018-07-04T11:36:49.700Z,39.75
2018-07-04T11:38:13.353Z,40.76
2018-07-04T11:39:44.731Z,41.62
2018-07-04T11:41:08.552Z,38.84
2018-07-04T11:42:36.234Z,40.92
2018-07-04T11:44:00.339Z,39.88
2018-07-04T11:45:30.983Z,39.77
2018-07-04T11:46:58.617Z,40.43
2018-07-04T11:48:26.160Z,39.81
2018-07-04T11:49:53.859Z,39.42
2018-07-04T11:51:25.435Z,38.52
2018-07-04T11:52:49.259Z,38.68
2018-07-04T11:54:16.885Z,38.59
2018-07-04T11:55:44.570Z,38.23
2018-07-04T11:57:12.139Z,37.94
2018-07-04T11:58:43.781Z,38.00
2018-07-04T12:00:07.213Z,36.91
2018-07-04T12:01:35.061Z,37.97
2018-07-04T12:03:02.609Z,38.25
2018-07-04T12:04:34.115Z,37.58
2018-07-04T12:05:57.644Z,37.26
2018-07-04T12:07:25.079Z,37.97
2018-07-04T12:08:52.624Z,38.59
2018-07-04T12:10:24.463Z,38.59
2018-07-04T12:11:47.890Z,37.52
2018-07-04T12:13:15.363Z,37.58
2018-07-04T12:14:46.955Z,37.64
2018-07-04T12:16:10.607Z,36.50
2018-07-04T12:17:38.291Z,36.64
2018-07-04T12:19:10.020Z,36.93
2018-07-04T12:20:37.396Z,36.90
2018-07-04T12:22:01.150Z,37.81
2018-07-04T12:23:28.565Z,37.97
2018-07-04T12:25:00.124Z,36.70
2018-07-04T12:26:23.770Z,37.23
2018-07-04T12:27:51.046Z,37.13
2018-07-04T12:29:22.582Z,37.27
2018-07-04T12:30:50.465Z,37.13
2018-07-04T12:33:41.337Z,36.71
2018-07-04T12:35:09.137Z,36.46
2018-07-04T12:36:40.827Z,37.13
2018-07-04T12:38:08.591Z,36.97
2018-07-04T12:39:32.367Z,37.38
2018-07-04T12:41:00.042Z,36.61
2018-07-04T12:42:27.756Z,38.19
2018-07-04T12:43:55.349Z,37.09
2018-07-04T12:45:26.908Z,36.30
2018-07-04T12:46:50.379Z,36.44
2018-07-04T12:48:18.033Z,36.71
2018-07-04T12:49:45.658Z,37.84
2018-07-04T12:51:13.294Z,36.66
2018-07-04T12:52:44.902Z,37.62
2018-07-04T12:54:12.614Z,35.88
2018-07-04T12:55:40.011Z,37.12
2018-07-04T12:57:03.816Z,36.45
2018-07-04T12:58:31.477Z,37.73
2018-07-04T12:59:59.116Z,37.56
2018-07-04T13:01:26.525Z,37.39
2018-07-04T13:02:54.271Z,37.70
2018-07-04T13:04:21.855Z,37.78
2018-07-04T13:05:49.534Z,37.02
2018-07-04T13:07:16.796Z,37.25
2018-07-04T13:08:44.460Z,37.86
2018-07-04T13:10:12.130Z,37.99
2018-07-04T13:11:43.801Z,37.80
2018-07-04T13:13:11.372Z,38.84
2018-07-04T13:14:39.255Z,38.99
2018-07-04T13:16:06.832Z,39.38
2018-07-04T13:17:30.404Z,39.94
2018-07-04T13:18:58.134Z,40.17
2018-07-04T13:20:25.692Z,39.87
2018-07-04T13:21:53.522Z,40.55
2018-07-04T13:23:21.308Z,41.38
2018-07-04T13:24:48.652Z,40.06
2018-07-04T13:26:20.313Z,39.68
2018-07-04T13:27:43.894Z,40.22
2018-07-04T13:29:15.295Z,39.08
2018-07-04T13:30:42.797Z,38.21
2018-07-04T13:32:06.605Z,38.46
2018-07-04T13:33:38.099Z,38.52
2018-07-04T13:35:01.909Z,39.54
2018-07-04T13:36:29.686Z,41.10
2018-07-04T13:38:01.365Z,41.65
2018-07-04T13:39:25.110Z,39.16
2018-07-04T13:40:56.867Z,38.69
2018-07-04T13:42:20.437Z,38.31
2018-07-04T13:43:47.962Z,37.20
2018-07-04T13:45:19.826Z,36.68
2018-07-04T13:46:43.457Z,39.13
2018-07-04T13:48:10.974Z,39.35
2018-07-04T13:49:38.576Z,42.87
2018-07-04T13:51:06.048Z,46.46
2018-07-04T13:52:33.914Z,48.23
2018-07-04T13:54:01.441Z,50.13
2018-07-04T13:55:29.172Z,51.10
2018-07-04T13:57:00.874Z,52.99
2018-07-04T13:58:24.541Z,54.36
2018-07-04T13:59:56.100Z,56.57
2018-07-04T14:01:23.794Z,56.72
2018-07-04T14:02:47.438Z,55.26
2018-07-04T14:04:14.955Z,56.06
2018-07-04T14:05:42.381Z,56.68
2018-07-04T14:07:09.991Z,57.26
2018-07-04T14:08:37.574Z,57.20
2018-07-04T14:10:05.306Z,55.91
2018-07-04T14:11:36.979Z,58.72
2018-07-04T14:13:00.647Z,59.32
2018-07-04T14:14:28.414Z,60.13
2018-07-04T14:15:56.047Z,60.86
2018-07-04T14:17:27.431Z,61.70
2018-07-04T14:18:55.067Z,64.62
2018-07-04T14:20:22.632Z,69.32
2018-07-04T14:21:46.172Z,67.08
2018-07-04T14:23:13.802Z,70.61
2018-07-04T14:24:41.364Z,72.07
2018-07-04T14:26:08.918Z,73.59
2018-07-04T14:27:40.670Z,71.72
2018-07-04T14:29:08.248Z,70.53
2018-07-04T14:30:31.686Z,73.13
2018-07-04T14:32:03.390Z,61.46
2018-07-04T14:33:27.079Z,78.23
2018-07-04T14:34:54.657Z,74.20
2018-07-04T14:36:22.258Z,75.49
2018-07-04T14:37:50.094Z,77.46
2018-07-04T14:39:21.643Z,74.47
2018-07-04T14:40:49.355Z,72.25
2018-07-04T14:42:12.891Z,74.39
2018-07-04T14:43:40.530Z,73.97
2018-07-04T14:45:12.161Z,79.42
2018-07-04T14:46:35.906Z,77.67
2018-07-04T14:48:07.581Z,78.02
2018-07-04T14:49:31.350Z,79.84
2018-07-04T14:50:58.920Z,81.06
2018-07-04T14:52:26.797Z,80.33
2018-07-04T14:53:53.979Z,78.21
2018-07-04T14:55:21.583Z,80.84
2018-07-04T14:56:49.213Z,80.90
2018-07-04T14:58:16.414Z,80.70
2018-07-04T14:59:44.137Z,83.69
2018-07-04T15:01:11.510Z,82.17
2018-07-04T15:41:26.981Z,89.05
2018-07-04T15:42:49.218Z,87.20
2018-07-04T15:44:20.937Z,88.49
2018-07-04T15:45:44.435Z,90.91
2018-07-04T15:47:16.116Z,90.78
2018-07-04T15:48:43.652Z,91.78
2018-07-04T15:50:11.179Z,91.08
2018-07-04T15:51:38.875Z,92.16
2018-07-04T15:53:02.450Z,92.60
2018-07-04T15:54:33.757Z,94.54
2018-07-04T15:55:57.276Z,93.42
2018-07-04T15:57:24.726Z,92.07
2018-07-04T15:58:52.440Z,92.69
2018-07-04T16:00:23.946Z,93.60
2018-07-04T16:01:51.294Z,92.39
2018-07-04T16:03:19.160Z,91.88
2018-07-04T16:04:42.789Z,93.79
2018-07-04T16:06:10.334Z,92.81
2018-07-04T16:07:41.976Z,93.63
2018-07-04T16:09:05.807Z,92.17
2018-07-04T16:10:37.211Z,92.28
2018-07-04T16:12:04.557Z,92.74
2018-07-04T16:13:28.099Z,94.34
2018-07-04T16:14:55.718Z,93.58
2018-07-04T16:16:23.257Z,91.70
2018-07-04T16:17:50.945Z,92.36
2018-07-04T16:19:18.525Z,93.85
2018-07-04T16:20:46.002Z,91.93
2018-07-04T16:22:13.580Z,92.63
2018-07-04T16:23:45.068Z,92.08
2018-07-04T16:25:08.696Z,92.63
2018-07-04T16:26:35.887Z,92.91
2018-07-04T16:28:07.608Z,94.33
2018-07-04T16:29:31.090Z,91.59
2018-07-04T16:30:58.576Z,91.76
2018-07-04T16:32:26.078Z,93.09
2018-07-04T16:33:53.908Z,93.42
2018-07-04T16:35:25.599Z,94.06
2018-07-04T16:36:49.338Z,94.66
2018-07-04T16:38:20.780Z,96.00
2018-07-04T16:39:44.467Z,96.81
2018-07-04T16:41:12.104Z,96.09
2018-07-04T16:42:39.723Z,96.20
2018-07-04T16:44:11.247Z,96.82
2018-07-04T16:45:34.739Z,96.21
2018-07-04T16:47:02.296Z,96.05
2018-07-04T16:48:29.675Z,95.23
2018-07-04T16:50:01.178Z,95.51
2018-07-04T16:51:24.589Z,97.39
2018-07-04T16:52:52.079Z,96.22
2018-07-04T16:54:23.685Z,98.02
2018-07-04T16:55:51.328Z,97.74
2018-07-04T16:57:14.883Z,97.33
2018-07-04T16:58:42.303Z,94.89
2018-07-04T17:00:13.817Z,93.92
2018-07-04T17:01:37.331Z,94.40
2018-07-04T17:03:04.759Z,94.56
2018-07-04T17:04:32.108Z,96.39
2018-07-04T17:05:59.802Z,97.40
2018-07-04T17:07:27.242Z,97.20
2018-07-04T17:08:59.013Z,95.37
2018-07-04T17:10:22.569Z,96.91
2018-07-04T17:11:50.317Z,95.93
2018-07-04T17:13:17.820Z,94.88
2018-07-04T17:14:45.419Z,95.70
2018-07-04T17:16:12.831Z,95.06
2018-07-04T17:17:40.385Z,95.23
2018-07-04T17:19:07.823Z,96.23
2018-07-04T17:20:35.628Z,97.01
2018-07-04T17:22:03.131Z,98.56
2018-07-04T17:23:30.864Z,98.13
2018-07-04T17:24:58.287Z,98.21
2018-07-04T17:26:26.158Z,98.64
2018-07-04T17:27:53.764Z,100.00
2018-07-04T17:29:21.339Z,100.00
2018-07-04T17:30:52.987Z,100.00
2018-07-04T17:32:20.668Z,100.00
2018-07-04T17:33:44.192Z,100.00
2018-07-04T17:35:11.799Z,100.00
2018-07-04T17:36:43.366Z,100.00
2018-07-04T17:38:06.755Z,100.00
2018-07-04T17:39:34.409Z,100.00
2018-07-04T17:41:01.863Z,100.00
2018-07-04T17:42:33.451Z,100.00
2018-07-04T17:44:00.882Z,100.00
2018-07-04T17:45:24.361Z,100.00
2018-07-04T17:46:52.009Z,100.00
2018-07-04T17:48:19.785Z,100.00
2018-07-04T17:49:51.282Z,100.00
2018-07-04T17:51:14.768Z,100.00
2018-07-04T17:52:42.219Z,100.00
2018-07-04T17:54:09.705Z,100.00
2018-07-04T17:55:37.224Z,100.00
2018-07-04T17:57:04.709Z,100.00
2018-07-04T17:58:36.105Z,100.00
2018-07-04T18:00:03.720Z,100.00
2018-07-04T18:01:27.138Z,100.00
2018-07-04T18:02:54.715Z,100.00
2018-07-04T18:04:26.399Z,100.00
2018-07-04T18:05:50.032Z,100.00
2018-07-04T18:07:17.526Z,100.00
2018-07-04T18:08:45.032Z,100.00
2018-07-04T18:10:16.489Z,100.00
2018-07-04T18:11:40.095Z,100.00
2018-07-04T18:13:07.758Z,100.00
2018-07-04T18:14:39.306Z,100.00
2018-07-04T18:16:02.907Z,100.00
2018-07-04T18:17:30.689Z,100.00
2018-07-04T18:19:02.224Z,100.00
2018-07-04T18:20:25.657Z,100.00
2018-07-04T18:21:57.277Z,100.00
2018-07-04T18:23:20.744Z,100.00
2018-07-04T18:24:48.284Z,100.00
2018-07-04T18:26:19.839Z,100.00
2018-07-04T18:27:47.527Z,100.00
2018-07-04T18:29:11.140Z,100.00
2018-07-04T18:30:38.709Z,100.00
2018-07-04T18:32:06.361Z,100.00
2018-07-04T18:33:33.777Z,100.00
2018-07-04T18:35:01.263Z,100.00
2018-07-04T18:36:32.805Z,100.00
2018-07-04T18:37:56.272Z,100.00
2018-07-04T18:39:23.907Z,100.00
2018-07-04T18:40:55.663Z,100.00
2018-07-04T18:42:23.466Z,100.00
2018-07-04T18:43:46.699Z,100.00
2018-07-04T18:45:14.419Z,100.00
2018-07-04T18:46:46.089Z,100.00
2018-07-04T18:48:09.667Z,100.00
2018-07-04T18:49:37.124Z,100.00
2018-07-04T18:51:04.835Z,100.00
2018-07-04T18:52:32.442Z,100.00
2018-07-04T18:53:59.847Z,100.00
2018-07-04T18:55:27.510Z,100.00
2018-07-04T18:56:55.095Z,100.00
2018-07-04T18:58:22.586Z,100.00
2018-07-04T18:59:54.037Z,100.00
2018-07-04T19:01:17.633Z,100.00
2018-07-04T19:02:45.295Z,100.00
2018-07-04T19:04:12.956Z,100.00
2018-07-04T19:05:40.254Z,100.00
2018-07-04T19:07:11.857Z,100.00